Time;durP1;ratioP1;P1;durP2;ratioP2;P2;SDS_P1;SDS_P2;PMS_P1;PMS_P2;Temp;Humidity;BMP_temperature;BMP_pressure;BME280_temperature;BME280_humidity;BME280_pressure;Samples;Min_cycle;Max_cycle;Signal;HPM_P1;HPM_P2
2024/01/09 00:00:01;;;;;;;14.93;11.10;;;;;;;-5.07;69.96;98909.19;4990672;28;20202;-73
2024/01/09 00:02:28;;;;;;;17.48;13.27;;;;;;;-5.00;69.48;98915.00;4989302;28;20294;-73
2024/01/09 00:04:54;;;;;;;19.58;13.43;;;;;;;-5.13;70.03;98917.44;4988828;28;20302;-73
2024/01/09 00:07:23;;;;;;;16.20;12.55;;;;;;;-5.04;69.93;98913.44;4990138;28;20549;-73
2024/01/09 00:09:50;;;;;;;16.38;13.05;;;;;;;-5.05;69.76;98904.69;4988782;28;20208;-73
2024/01/09 00:12:17;;;;;;;15.88;13.05;;;;;;;-5.03;69.67;98905.47;4990154;28;20214;-73
2024/01/09 00:14:45;;;;;;;16.48;13.60;;;;;;;-4.94;68.99;98915.53;4991456;28;20684;-73
2024/01/09 00:17:11;;;;;;;15.82;11.90;;;;;;;-4.99;69.10;98906.16;4993415;28;20864;-73
2024/01/09 00:19:39;;;;;;;15.98;12.57;;;;;;;-5.01;69.29;98914.16;5007692;28;20286;-73
2024/01/09 00:22:05;;;;;;;16.88;12.63;;;;;;;-5.02;69.07;98906.31;4992678;28;20211;-73
2024/01/09 00:24:33;;;;;;;17.65;13.52;;;;;;;-5.03;69.31;98915.16;4993244;28;20203;-73
2024/01/09 00:27:00;;;;;;;16.48;12.95;;;;;;;-5.28;69.70;98907.72;4990934;28;20274;-73
2024/01/09 00:29:27;;;;;;;15.77;12.90;;;;;;;-5.23;69.58;98908.34;4975385;28;20628;-73
2024/01/09 00:31:53;;;;;;;13.93;11.73;;;;;;;-5.18;69.03;98911.56;4992052;28;20199;-73
2024/01/09 00:34:20;;;;;;;15.50;13.13;;;;;;;-5.21;69.26;98907.31;4991881;28;20577;-73
2024/01/09 00:36:46;;;;;;;14.02;12.57;;;;;;;-5.19;69.40;98909.84;5001103;28;20227;-73
2024/01/09 00:39:13;;;;;;;13.10;11.70;;;;;;;-5.08;69.10;98903.06;4991922;28;20218;-73
2024/01/09 00:41:41;;;;;;;15.05;12.13;;;;;;;-5.01;68.69;98903.59;4990901;28;20203;-73
2024/01/09 00:44:08;;;;;;;13.60;11.70;;;;;;;-4.95;68.55;98907.69;5006209;28;20207;-73
2024/01/09 00:46:34;;;;;;;14.20;12.02;;;;;;;-5.04;68.46;98903.75;4992839;28;20196;-73
2024/01/09 00:49:01;;;;;;;15.27;12.60;;;;;;;-5.17;69.05;98902.69;4993624;28;20203;-73
2024/01/09 00:51:27;;;;;;;14.02;11.77;;;;;;;-5.04;68.66;98905.53;5007965;28;20211;-73
2024/01/09 00:53:55;;;;;;;14.15;12.32;;;;;;;-5.04;67.96;98898.47;4991112;28;20203;-73
2024/01/09 00:56:22;;;;;;;16.33;11.70;;;;;;;-5.01;68.16;98908.88;5001384;28;20234;-73
2024/01/09 00:58:50;;;;;;;13.52;11.70;;;;;;;-5.00;68.32;98905.28;4990729;28;20200;-73
2024/01/09 01:01:18;;;;;;;13.30;11.75;;;;;;;-5.08;68.40;98902.22;4973653;28;20601;-73
2024/01/09 01:03:45;;;;;;;15.65;12.63;;;;;;;-5.10;68.25;98904.09;5024448;28;20556;-73
2024/01/09 01:06:12;;;;;;;17.48;12.27;;;;;;;-5.13;68.85;98906.88;5006662;28;20206;-73
2024/01/09 01:08:38;;;;;;;16.80;12.77;;;;;;;-5.17;68.83;98905.34;4998974;28;20290;-73
2024/01/09 01:11:05;;;;;;;18.52;11.27;;;;;;;-5.12;68.50;98909.44;5000737;28;20207;-73
2024/01/09 01:13:32;;;;;;;14.05;11.68;;;;;;;-5.23;69.01;98900.44;5000148;28;20222;-73
2024/01/09 01:16:00;;;;;;;12.95;11.45;;;;;;;-5.18;68.79;98906.28;4990911;28;20226;-73
2024/01/09 01:18:27;;;;;;;14.13;11.70;;;;;;;-5.06;68.45;98921.44;4990309;28;20208;-73
2024/01/09 01:20:53;;;;;;;13.32;11.65;;;;;;;-5.23;68.78;98913.63;5024627;28;20541;-73
2024/01/09 01:23:20;;;;;;;13.07;11.50;;;;;;;-5.23;68.79;98913.63;4991590;28;20269;-73
2024/01/09 01:25:47;;;;;;;13.88;11.95;;;;;;;-5.24;68.46;98915.41;4989414;28;20669;-73
2024/01/09 01:28:13;;;;;;;14.52;11.98;;;;;;;-5.26;68.22;98919.06;4990288;28;20203;-73
2024/01/09 01:30:40;;;;;;;16.63;12.73;;;;;;;-5.30;68.39;98925.41;4990586;28;20199;-73
2024/01/09 01:33:08;;;;;;;15.18;12.63;;;;;;;-5.21;67.95;98922.31;4989680;28;20550;-73
2024/01/09 01:35:34;;;;;;;14.75;12.20;;;;;;;-5.31;68.64;98929.84;4991098;28;20239;-73
2024/01/09 01:38:01;;;;;;;15.13;12.98;;;;;;;-5.39;68.73;98925.91;4999326;28;21614;-73
2024/01/09 01:40:27;;;;;;;15.10;12.05;;;;;;;-5.21;68.07;98927.56;4991083;28;20206;-73
2024/01/09 01:42:57;;;;;;;16.08;13.35;;;;;;;-5.27;68.51;98925.25;4998890;28;20831;-73
2024/01/09 01:45:24;;;;;;;15.57;13.07;;;;;;;-5.08;68.31;98925.97;4998299;28;20219;-73
2024/01/09 01:47:51;;;;;;;15.02;12.70;;;;;;;-5.14;68.46;98924.50;4992134;28;20284;-73
2024/01/09 01:50:19;;;;;;;15.20;12.32;;;;;;;-5.25;69.22;98926.88;4990804;28;20576;-73
2024/01/09 01:52:46;;;;;;;18.40;13.48;;;;;;;-5.34;69.53;98926.50;4991763;28;20207;-73
2024/01/09 01:55:13;;;;;;;19.10;13.88;;;;;;;-5.38;69.22;98927.59;5006648;28;20215;-73
2024/01/09 01:57:40;;;;;;;17.15;13.77;;;;;;;-5.50;69.73;98929.94;4991798;28;20771;-73
2024/01/09 02:00:07;;;;;;;14.13;12.38;;;;;;;-5.52;70.00;98923.06;4991303;28;20217;-73
2024/01/09 02:02:35;;;;;;;17.58;13.10;;;;;;;-5.51;69.75;98925.59;5022768;28;20203;-73
2024/01/09 02:05:02;;;;;;;15.35;13.23;;;;;;;-5.46;69.87;98918.31;5005558;28;20203;-73
2024/01/09 02:07:32;;;;;;;18.27;14.00;;;;;;;-5.47;69.59;98923.66;4989437;28;20549;-73
2024/01/09 02:09:59;;;;;;;16.35;12.63;;;;;;;-5.36;69.34;98921.31;4991817;28;20205;-73
2024/01/09 02:12:26;;;;;;;18.75;13.45;;;;;;;-5.52;69.85;98923.91;4972962;28;20225;-73
2024/01/09 02:14:52;;;;;;;17.60;14.38;;;;;;;-5.42;69.46;98921.63;4990031;28;20206;-73
2024/01/09 02:17:26;;;;;;;17.60;14.10;;;;;;;-5.46;69.08;98923.56;4989928;28;20227;-73
2024/01/09 02:19:53;;;;;;;15.32;13.55;;;;;;;-5.31;68.59;98921.94;4984085;28;20203;-73
2024/01/09 02:22:20;;;;;;;16.38;13.27;;;;;;;-5.43;69.03;98926.06;4991232;28;22270;-72
2024/01/09 02:24:47;;;;;;;13.98;12.25;;;;;;;-5.43;69.66;98923.41;4983203;28;20286;-73
2024/01/09 02:27:21;;;;;;;16.23;13.15;;;;;;;-5.57;69.25;98915.41;4990398;28;20657;-73
2024/01/09 02:29:52;;;;;;;15.27;12.70;;;;;;;-5.40;69.15;98911.84;5015614;28;20254;-73
2024/01/09 02:32:19;;;;;;;17.33;13.23;;;;;;;-5.66;69.56;98917.66;5006055;28;20282;-73
2024/01/09 02:34:45;;;;;;;15.77;12.70;;;;;;;-5.43;68.89;98918.16;4991241;28;20211;-73
2024/01/09 02:37:12;;;;;;;16.27;14.10;;;;;;;-5.37;69.06;98916.13;4989102;28;20227;-73
2024/01/09 02:39:39;;;;;;;18.80;13.00;;;;;;;-5.43;69.22;98915.50;4987497;28;20210;-73
2024/01/09 02:42:06;;;;;;;17.23;13.82;;;;;;;-5.54;69.29;98909.97;5020990;28;20207;-73
2024/01/09 02:44:32;;;;;;;17.08;13.30;;;;;;;-5.72;69.71;98916.19;4989996;28;20654;-73
2024/01/09 02:47:00;;;;;;;14.63;13.05;;;;;;;-5.68;69.69;98904.56;4990643;28;20592;-73
2024/01/09 02:49:27;;;;;;;16.35;12.80;;;;;;;-5.48;69.00;98904.34;4966765;28;20223;-73
2024/01/09 02:51:55;;;;;;;16.77;12.50;;;;;;;-5.52;69.36;98917.81;4989182;28;20661;-73
2024/01/09 02:54:21;;;;;;;14.50;12.27;;;;;;;-5.70;69.55;98903.78;4987617;28;20203;-73
2024/01/09 02:56:48;;;;;;;14.80;13.13;;;;;;;-5.73;69.58;98908.34;4989508;28;20237;-73
2024/01/09 02:59:14;;;;;;;15.77;11.80;;;;;;;-5.80;69.64;98915.72;4988825;28;20211;-73
2024/01/09 03:01:41;;;;;;;13.85;11.90;;;;;;;-5.71;69.79;98896.81;5022368;28;20226;-73
2024/01/09 03:04:09;;;;;;;15.85;12.88;;;;;;;-5.61;68.98;98908.59;4988984;28;20210;-73
2024/01/09 03:06:35;;;;;;;14.15;12.43;;;;;;;-5.62;68.72;98906.88;4990249;28;20207;-73
2024/01/09 03:09:02;;;;;;;15.05;11.90;;;;;;;-5.68;69.01;98895.78;4988742;28;20730;-72
2024/01/09 03:11:28;;;;;;;14.30;12.25;;;;;;;-5.74;68.81;98912.78;4988980;28;20199;-73
2024/01/09 03:13:55;;;;;;;15.18;11.27;;;;;;;-5.59;68.87;98905.88;4990361;28;20577;-73
2024/01/09 03:16:21;;;;;;;15.50;12.10;;;;;;;-5.56;68.46;98903.06;4989784;28;20203;-73
2024/01/09 03:18:48;;;;;;;14.25;12.13;;;;;;;-5.52;67.87;98908.06;4990764;28;20684;-72
2024/01/09 03:21:16;;;;;;;16.85;13.35;;;;;;;-5.69;68.26;98900.22;4999147;28;20235;-73
2024/01/09 03:23:43;;;;;;;14.88;12.57;;;;;;;-5.67;68.16;98906.25;5005444;28;20230;-73
2024/01/09 03:26:09;;;;;;;13.40;10.77;;;;;;;-5.56;67.92;98898.66;4988596;28;20211;-73
2024/01/09 03:28:37;;;;;;;13.40;11.68;;;;;;;-5.61;67.79;98907.72;4990612;28;20204;-73
2024/01/09 03:31:04;;;;;;;14.98;12.93;;;;;;;-5.53;67.58;98903.75;5003687;28;20208;-73
2024/01/09 03:33:30;;;;;;;13.40;11.32;;;;;;;-5.61;67.73;98903.31;4989900;28;20231;-73
2024/01/09 03:35:58;;;;;;;14.18;11.88;;;;;;;-5.84;68.11;98907.13;4986999;28;20211;-73
2024/01/09 03:38:27;;;;;;;15.05;11.82;;;;;;;-5.83;68.52;98902.69;4985493;28;20223;-73
2024/01/09 03:40:54;;;;;;;16.17;11.88;;;;;;;-5.78;68.26;98905.97;4973123;28;20214;-73
2024/01/09 03:43:20;;;;;;;13.05;11.30;;;;;;;-5.75;68.42;98890.84;4988605;28;20716;-73
2024/01/09 03:45:47;;;;;;;16.05;12.10;;;;;;;-5.75;68.33;98905.81;4997472;28;20291;-73
2024/01/09 03:48:13;;;;;;;17.67;11.32;;;;;;;-5.73;68.48;98906.56;4991142;28;20211;-73
2024/01/09 03:50:40;;;;;;;16.25;12.70;;;;;;;-5.73;68.32;98909.22;4993505;28;20265;-73
2024/01/09 03:53:07;;;;;;;13.05;11.65;;;;;;;-5.69;68.19;98900.22;4991963;28;20330;-73
2024/01/09 03:55:35;;;;;;;17.83;11.98;;;;;;;-5.63;67.49;98905.19;4993015;28;20245;-73
2024/01/09 03:58:01;;;;;;;13.85;11.20;;;;;;;-5.67;67.75;98906.25;4992134;28;20780;-73
2024/01/09 04:00:28;;;;;;;17.67;11.68;;;;;;;-5.62;67.92;98901.59;4992712;28;20222;-73
2024/01/09 04:02:54;;;;;;;15.27;11.50;;;;;;;-5.81;67.96;98901.69;4990795;28;20238;-73
2024/01/09 04:05:21;;;;;;;12.88;11.48;;;;;;;-5.62;67.43;98895.47;4993487;28;20195;-73
2024/01/09 04:07:47;;;;;;;14.90;12.60;;;;;;;-5.65;67.59;98891.22;4994030;28;20207;-73
2024/01/09 04:10:14;;;;;;;15.40;12.15;;;;;;;-5.59;67.34;98898.81;4993205;28;20196;-73
2024/01/09 04:12:42;;;;;;;14.45;11.18;;;;;;;-5.66;66.99;98894.78;4991202;28;20649;-73
2024/01/09 04:15:09;;;;;;;15.38;11.93;;;;;;;-5.72;67.77;98897.72;4992406;28;20215;-73
2024/01/09 04:17:37;;;;;;;16.17;12.48;;;;;;;-5.60;66.97;98897.09;4994114;28;20237;-73
2024/01/09 04:20:04;;;;;;;13.20;10.75;;;;;;;-5.50;66.75;98900.94;4992877;28;20258;-73
2024/01/09 04:22:31;;;;;;;12.57;10.10;;;;;;;-5.57;66.25;98904.00;4990225;28;20234;-73
2024/01/09 04:24:57;;;;;;;14.15;11.30;;;;;;;-5.64;66.61;98900.84;5001123;28;20687;-73
2024/01/09 04:27:24;;;;;;;12.93;11.05;;;;;;;-5.62;66.99;98909.50;4992922;28;20191;-73
2024/01/09 04:29:52;;;;;;;14.25;11.02;;;;;;;-5.59;66.57;98898.81;4990466;28;20210;-73
2024/01/09 04:32:19;;;;;;;13.82;10.85;;;;;;;-5.68;66.97;98901.06;4991561;28;20195;-73
2024/01/09 04:34:45;;;;;;;13.90;11.43;;;;;;;-5.76;67.12;98907.59;4985136;28;20293;-73
2024/01/09 04:37:12;;;;;;;14.18;11.00;;;;;;;-5.69;67.13;98904.63;4992009;28;20217;-73
2024/01/09 04:39:39;;;;;;;13.98;11.07;;;;;;;-5.76;67.19;98909.38;4987080;28;20196;-73
2024/01/09 04:42:06;;;;;;;13.63;10.80;;;;;;;-5.66;67.08;98905.34;4991310;28;20210;-74
2024/01/09 04:44:33;;;;;;;12.40;10.30;;;;;;;-5.66;67.38;98904.47;4992578;28;20217;-75
2024/01/09 04:47:01;;;;;;;15.55;11.57;;;;;;;-5.62;67.03;98911.28;4993776;28;20195;-74
2024/01/09 04:49:27;;;;;;;14.05;10.95;;;;;;;-5.68;67.49;98907.19;4975967;28;20207;-73
2024/01/09 04:51:55;;;;;;;13.40;11.35;;;;;;;-5.58;67.19;98902.31;5007318;28;20676;-73
2024/01/09 04:54:21;;;;;;;11.75;10.13;;;;;;;-5.73;67.84;98909.22;4992073;28;20274;-76
2024/01/09 04:56:48;;;;;;;12.05;9.88;;;;;;;-5.70;67.16;98910.84;5024285;28;21280;-76
2024/01/09 04:59:14;;;;;;;10.75;9.65;;;;;;;-5.64;67.62;98903.47;4991213;28;20225;-76
2024/01/09 05:01:41;;;;;;;14.93;10.73;;;;;;;-5.75;67.74;98905.81;4989660;28;20217;-76
2024/01/09 05:04:09;;;;;;;12.57;10.57;;;;;;;-5.71;67.66;98896.81;5022090;28;20208;-76
2024/01/09 05:06:36;;;;;;;14.70;11.43;;;;;;;-5.87;68.22;98898.53;4992845;28;20627;-76
2024/01/09 05:09:02;;;;;;;14.15;11.00;;;;;;;-5.67;67.90;98902.78;5022224;28;20214;-76
2024/01/09 05:11:29;;;;;;;13.30;10.70;;;;;;;-5.95;68.73;98908.66;4992173;28;20334;-76
2024/01/09 05:13:55;;;;;;;13.52;10.68;;;;;;;-5.92;68.96;98901.44;4996933;28;20263;-76
2024/01/09 05:16:27;;;;;;;13.10;10.95;;;;;;;-5.96;68.97;98899.91;4989815;28;20661;-77
2024/01/09 05:18:54;;;;;;;13.70;11.02;;;;;;;-5.86;68.32;98898.47;4972416;28;20717;-76
2024/01/09 05:21:22;;;;;;;16.55;11.85;;;;;;;-5.93;68.28;98896.25;4990054;28;20203;-75
2024/01/09 05:23:48;;;;;;;15.07;11.27;;;;;;;-6.02;68.68;98902.84;4989702;28;20649;-76
2024/01/09 05:26:15;;;;;;;12.68;10.68;;;;;;;-5.96;68.56;98897.25;4982774;28;20661;-76
2024/01/09 05:28:41;;;;;;;17.45;12.45;;;;;;;-5.84;68.06;98901.00;4992005;28;20257;-77
2024/01/09 05:31:08;;;;;;;15.90;11.20;;;;;;;-5.86;68.53;98901.09;4990646;28;20608;-76
2024/01/09 05:33:35;;;;;;;13.73;11.20;;;;;;;-5.94;68.38;98905.09;5023471;28;20211;-76
2024/01/09 05:36:02;;;;;;;22.35;12.40;;;;;;;-5.89;68.39;98903.06;4987711;28;20218;-72
2024/01/09 05:38:30;;;;;;;14.73;11.60;;;;;;;-5.91;68.46;98907.56;4979301;28;20250;-75
2024/01/09 05:40:57;;;;;;;14.40;11.88;;;;;;;-5.86;68.51;98913.44;4989154;28;20598;-74
2024/01/09 05:43:25;;;;;;;15.57;12.40;;;;;;;-5.91;68.36;98899.66;4989123;28;20242;-74
2024/01/09 05:45:51;;;;;;;13.40;11.85;;;;;;;-5.97;68.70;98915.78;4984286;28;20207;-74
2024/01/09 05:48:18;;;;;;;13.90;11.82;;;;;;;-5.94;68.46;98913.00;5019230;28;20218;-75
2024/01/09 05:50:45;;;;;;;15.60;12.43;;;;;;;-5.99;68.52;98917.63;4990024;28;20661;-75
2024/01/09 05:53:11;;;;;;;15.10;11.55;;;;;;;-5.96;68.35;98906.94;4989759;28;20218;-75
2024/01/09 05:55:39;;;;;;;15.20;12.23;;;;;;;-5.93;68.31;98917.34;4988901;28;20207;-73
2024/01/09 05:58:06;;;;;;;14.75;11.27;;;;;;;-5.98;68.74;98916.72;4999191;28;20229;-74
2024/01/09 06:00:35;;;;;;;13.93;11.95;;;;;;;-6.04;68.91;98920.50;4990065;28;20221;-75
2024/01/09 06:03:03;;;;;;;17.65;14.57;;;;;;;-5.88;68.55;98912.66;4992410;28;20231;-76
2024/01/09 06:05:30;;;;;;;20.02;15.55;;;;;;;-6.10;69.34;98916.38;4990145;28;20309;-73
2024/01/09 06:07:56;;;;;;;15.48;13.77;;;;;;;-5.96;68.98;98913.06;4988169;28;20199;-73
2024/01/09 06:10:23;;;;;;;18.65;15.02;;;;;;;-6.01;69.12;98920.34;4986806;28;20203;-73
2024/01/09 06:12:51;;;;;;;16.08;12.27;;;;;;;-5.98;68.39;98924.63;4990357;28;20677;-74
2024/01/09 06:15:17;;;;;;;15.88;11.52;;;;;;;-6.12;68.72;98922.66;4990985;28;20231;-73
2024/01/09 06:17:44;;;;;;;14.90;12.00;;;;;;;-6.12;68.44;98926.16;4988771;28;20222;-73
2024/01/09 06:20:11;;;;;;;14.63;11.27;;;;;;;-5.95;68.50;98927.94;4991420;28;20199;-73
2024/01/09 06:22:38;;;;;;;15.40;12.20;;;;;;;-5.96;68.07;98922.75;4992299;28;20203;-73
2024/01/09 06:25:05;;;;;;;22.58;17.42;;;;;;;-5.94;68.34;98920.91;4989154;28;20218;-73
2024/01/09 06:27:31;;;;;;;18.10;13.70;;;;;;;-6.08;68.37;98918.09;4999859;28;20214;-73
2024/01/09 06:29:59;;;;;;;18.40;13.40;;;;;;;-6.13;68.66;98920.94;4991256;28;20221;-74
2024/01/09 06:32:25;;;;;;;17.45;12.73;;;;;;;-6.07;68.17;98920.66;4989997;28;20683;-73
2024/01/09 06:34:52;;;;;;;18.35;12.50;;;;;;;-6.03;68.03;98924.00;4987907;28;20210;-73
2024/01/09 06:37:19;;;;;;;19.85;13.20;;;;;;;-6.20;68.55;98925.69;4985541;28;20206;-73
2024/01/09 06:39:45;;;;;;;16.05;13.07;;;;;;;-6.14;68.58;98920.09;4984828;28;20226;-73
2024/01/09 06:42:12;;;;;;;16.27;12.93;;;;;;;-6.13;68.55;98932.34;4987862;28;22123;-73
2024/01/09 06:44:38;;;;;;;16.50;11.77;;;;;;;-6.08;68.83;98933.91;5001623;28;20212;-72
2024/01/09 06:47:06;;;;;;;17.95;12.75;;;;;;;-6.17;68.71;98929.97;4988801;28;20214;-73
2024/01/09 06:49:33;;;;;;;17.50;13.90;;;;;;;-6.00;68.47;98921.19;4988665;28;20211;-73
2024/01/09 06:52:00;;;;;;;17.42;13.80;;;;;;;-6.00;68.82;98926.47;5005681;28;20686;-73
2024/01/09 06:54:26;;;;;;;23.23;16.73;;;;;;;-6.19;68.94;98934.47;4987792;28;20211;-73
2024/01/09 06:56:53;;;;;;;23.67;16.17;;;;;;;-6.08;68.97;98934.75;4991313;28;20196;-73
2024/01/09 06:59:19;;;;;;;23.00;17.50;;;;;;;-6.14;68.66;98935.91;4997850;28;20215;-73
2024/01/09 07:01:46;;;;;;;24.48;15.93;;;;;;;-6.12;69.25;98939.31;4989105;28;20200;-72
2024/01/09 07:04:15;;;;;;;26.83;17.63;;;;;;;-6.10;68.88;98937.47;4989193;28;20271;-73
2024/01/09 07:06:41;;;;;;;24.30;16.60;;;;;;;-6.01;68.75;98945.84;4986341;28;20225;-73
2024/01/09 07:09:08;;;;;;;21.88;16.38;;;;;;;-6.16;68.69;98943.03;4987277;28;20314;-72
2024/01/09 07:11:34;;;;;;;16.70;13.07;;;;;;;-5.96;68.29;98938.56;4982913;28;20206;-73
2024/01/09 07:14:01;;;;;;;18.05;13.80;;;;;;;-6.02;68.29;98946.78;4987361;28;20205;-72
2024/01/09 07:16:28;;;;;;;17.33;13.60;;;;;;;-6.02;68.40;98941.50;4987341;28;20218;-72
2024/01/09 07:18:54;;;;;;;17.77;14.60;;;;;;;-5.91;68.60;98947.09;4986781;28;20686;-72
2024/01/09 07:21:22;;;;;;;16.10;13.73;;;;;;;-6.09;68.67;98940.94;4985015;28;20207;-73
2024/01/09 07:23:49;;;;;;;15.18;13.25;;;;;;;-6.08;69.07;98944.44;4987927;28;20208;-72
2024/01/09 07:26:16;;;;;;;16.33;12.77;;;;;;;-5.90;68.99;98944.38;4986840;28;20242;-72
2024/01/09 07:28:42;;;;;;;16.13;13.23;;;;;;;-5.85;68.54;98938.84;4986335;28;20608;-72
2024/01/09 07:31:09;;;;;;;16.20;13.55;;;;;;;-5.89;68.97;98945.22;4987710;28;20211;-72
2024/01/09 07:33:35;;;;;;;16.92;12.45;;;;;;;-5.98;68.92;98935.16;4984453;28;20203;-73
2024/01/09 07:36:02;;;;;;;16.63;13.75;;;;;;;-5.78;68.24;98942.84;4986612;28;20237;-73
2024/01/09 07:38:30;;;;;;;16.63;13.00;;;;;;;-5.76;68.28;98943.63;4982666;28;20669;-72
2024/01/09 07:40:56;;;;;;;18.10;13.95;;;;;;;-5.78;68.30;98943.69;4985342;28;20604;-72
2024/01/09 07:43:23;;;;;;;15.40;13.45;;;;;;;-5.68;68.24;98954.63;4988164;28;20199;-72
2024/01/09 07:45:50;;;;;;;16.02;12.63;;;;;;;-5.79;68.68;98949.06;4986099;28;20701;-72
2024/01/09 07:48:16;;;;;;;17.80;12.13;;;;;;;-5.76;68.31;98956.81;4986311;28;20682;-72
2024/01/09 07:50:43;;;;;;;15.85;11.63;;;;;;;-5.66;68.20;98960.69;4986531;28;20568;-72
2024/01/09 07:53:09;;;;;;;17.88;13.30;;;;;;;-5.58;67.87;98955.88;4986562;28;20215;-72
2024/01/09 07:55:40;;;;;;;20.85;12.27;;;;;;;-5.54;67.86;98965.34;5010133;28;20218;-72
2024/01/09 07:58:07;;;;;;;16.40;11.65;;;;;;;-5.60;67.10;98968.28;4985142;28;20210;-72
2024/01/09 08:00:34;;;;;;;15.52;11.38;;;;;;;-5.57;66.71;98964.63;4983653;28;20199;-72
2024/01/09 08:03:01;;;;;;;19.33;12.95;;;;;;;-5.25;66.06;98969.09;4983079;28;20648;-72
2024/01/09 08:05:27;;;;;;;18.30;13.30;;;;;;;-5.20;65.14;98966.22;4986935;28;20292;-72
2024/01/09 08:07:54;;;;;;;19.17;13.90;;;;;;;-5.17;65.63;98961.59;4995893;28;20282;-72
2024/01/09 08:10:20;;;;;;;20.13;13.45;;;;;;;-4.95;64.90;98961.31;4984620;28;20192;-72
2024/01/09 08:12:48;;;;;;;17.63;12.98;;;;;;;-5.20;64.76;98966.22;4983359;28;20203;-72
2024/01/09 08:15:15;;;;;;;18.23;12.98;;;;;;;-5.02;65.02;98961.72;4987054;28;20545;-72
2024/01/09 08:17:41;;;;;;;19.30;13.30;;;;;;;-5.08;64.33;98970.81;4996100;28;20278;-72
2024/01/09 08:20:09;;;;;;;20.00;13.23;;;;;;;-4.86;62.98;98965.22;4983574;28;20215;-72
2024/01/09 08:22:35;;;;;;;15.73;11.55;;;;;;;-4.71;62.82;98963.53;4980181;28;20298;-72
2024/01/09 08:25:02;;;;;;;23.42;15.07;;;;;;;-4.64;62.33;98970.19;4986194;28;20214;-72
2024/01/09 08:27:29;;;;;;;21.95;14.80;;;;;;;-4.82;62.34;98959.69;4987414;28;20274;-72
2024/01/09 08:29:57;;;;;;;20.10;13.43;;;;;;;-4.67;61.76;98959.81;4985676;28;20226;-72
2024/01/09 08:32:24;;;;;;;15.45;10.43;;;;;;;-4.71;61.68;98960.91;5000809;28;20291;-72
2024/01/09 08:34:50;;;;;;;16.45;11.70;;;;;;;-4.55;61.18;98964.41;4990334;28;20542;-72
2024/01/09 08:37:20;;;;;;;15.88;12.63;;;;;;;-4.55;61.15;98960.00;4987902;28;20203;-72
2024/01/09 08:39:47;;;;;;;16.98;10.48;;;;;;;-4.21;60.66;98963.34;4987410;28;20707;-72
2024/01/09 08:42:13;;;;;;;17.55;12.50;;;;;;;-4.11;59.87;98964.53;4989939;28;20297;-72
2024/01/09 08:44:40;;;;;;;11.50;9.50;;;;;;;-4.28;59.95;98965.50;4989757;28;20285;-72
2024/01/09 08:47:07;;;;;;;17.98;12.40;;;;;;;-4.08;59.58;98965.22;4991386;28;20217;-72
2024/01/09 08:49:34;;;;;;;13.90;10.50;;;;;;;-3.85;58.76;98955.94;4987942;28;20207;-72
2024/01/09 08:52:01;;;;;;;13.60;10.20;;;;;;;-4.30;59.22;98964.75;4990046;28;20209;-72
2024/01/09 08:54:27;;;;;;;13.93;10.07;;;;;;;-4.52;59.04;98961.56;4988288;28;20207;-72
2024/01/09 08:56:54;;;;;;;17.02;11.88;;;;;;;-4.35;59.65;98960.66;4987639;28;20285;-72
2024/01/09 08:59:22;;;;;;;16.63;11.75;;;;;;;-3.99;59.19;98969.13;4990582;28;20732;-72
2024/01/09 09:01:50;;;;;;;13.00;10.60;;;;;;;-3.85;58.05;98965.66;4988720;28;20681;-72
2024/01/09 09:04:17;;;;;;;15.13;9.55;;;;;;;-3.65;57.48;98959.22;4988923;28;20203;-72
2024/01/09 09:06:44;;;;;;;12.73;9.93;;;;;;;-2.86;55.88;98957.00;4988416;28;20223;-72
2024/01/09 09:09:11;;;;;;;13.43;9.27;;;;;;;-2.15;52.77;98949.75;4989992;28;20203;-72
2024/01/09 09:11:38;;;;;;;14.07;9.27;;;;;;;-1.53;50.74;98957.97;4974464;28;20286;-72
2024/01/09 09:14:05;;;;;;;12.75;9.70;;;;;;;-1.59;50.59;98958.38;4997271;28;20286;-73
2024/01/09 09:16:31;;;;;;;11.05;9.05;;;;;;;-1.51;50.38;98949.91;4998373;28;20231;-73
2024/01/09 09:18:58;;;;;;;13.70;9.80;;;;;;;-1.03;49.03;98945.69;5000550;28;20870;-73
2024/01/09 09:21:26;;;;;;;13.38;10.63;;;;;;;-0.62;49.25;98939.22;4997415;28;20242;-72
2024/01/09 09:23:53;;;;;;;12.00;9.55;;;;;;;0.05;46.35;98942.28;4994877;28;20286;-73
2024/01/09 09:26:19;;;;;;;12.27;10.98;;;;;;;0.04;46.84;98937.91;4990186;28;20206;-73
2024/01/09 09:28:47;;;;;;;15.38;12.43;;;;;;;0.65;46.03;98940.31;4988486;28;20295;-72
2024/01/09 09:31:14;;;;;;;10.55;9.45;;;;;;;1.14;44.82;98941.00;4990216;28;20902;-72
2024/01/09 09:33:42;;;;;;;15.45;11.13;;;;;;;0.55;43.74;98942.00;4988540;28;20207;-72
2024/01/09 09:36:09;;;;;;;13.15;10.32;;;;;;;0.34;45.54;98941.78;4989396;28;20215;-73
2024/01/09 09:38:37;;;;;;;11.18;10.02;;;;;;;0.45;45.07;98941.00;4985559;28;20664;-72
2024/01/09 09:41:05;;;;;;;14.38;10.02;;;;;;;1.08;44.05;98931.66;4988636;28;20274;-72
2024/01/09 09:43:34;;;;;;;14.70;10.05;;;;;;;1.18;43.11;98927.31;4987821;28;20206;-70
2024/01/09 09:46:02;;;;;;;12.05;9.40;;;;;;;1.82;42.55;98922.13;4987633;28;20286;-71
2024/01/09 09:48:29;;;;;;;12.40;10.02;;;;;;;2.56;41.58;98924.84;4988541;28;20227;-71
2024/01/09 09:50:56;;;;;;;11.75;10.35;;;;;;;2.34;41.15;98932.00;4979658;28;20282;-71
2024/01/09 09:53:24;;;;;;;15.23;10.60;;;;;;;2.55;40.29;98926.69;4988091;28;20210;-71
2024/01/09 09:55:54;;;;;;;11.27;10.07;;;;;;;2.08;40.53;98924.47;4985836;28;20203;-71
2024/01/09 09:58:21;;;;;;;13.35;10.77;;;;;;;1.96;40.85;98924.47;4988728;28;20299;-71
2024/01/09 10:00:48;;;;;;;12.57;10.32;;;;;;;2.19;39.96;98927.09;4985956;28;20211;-71
2024/01/09 10:03:17;;;;;;;12.23;10.18;;;;;;;1.78;40.95;98922.50;4984002;28;20231;-70
2024/01/09 10:05:44;;;;;;;11.95;10.35;;;;;;;1.32;41.70;98924.38;4985829;28;20196;-69
2024/01/09 10:08:12;;;;;;;12.60;11.25;;;;;;;0.77;41.93;98921.69;4982305;28;20202;-70
2024/01/09 10:10:39;;;;;;;13.18;10.95;;;;;;;-0.30;44.63;98929.75;4992116;28;20653;-69
2024/01/09 10:13:07;;;;;;;13.63;11.02;;;;;;;-0.30;45.14;98924.44;4982514;28;20289;-71
2024/01/09 10:15:33;;;;;;;12.80;10.88;;;;;;;0.81;44.40;98915.16;4985161;28;20207;-71
2024/01/09 10:18:01;;;;;;;12.13;10.02;;;;;;;1.93;42.27;98919.44;4988236;28;21542;-77
2024/01/09 10:20:29;;;;;;;13.77;10.52;;;;;;;2.16;40.95;98917.50;4998316;28;20665;-70
2024/01/09 10:22:56;;;;;;;11.63;10.15;;;;;;;1.52;40.46;98913.94;4984381;28;20649;-70
2024/01/09 10:25:23;;;;;;;12.20;9.57;;;;;;;1.69;41.00;98916.91;4985554;28;20203;-70
2024/01/09 10:27:50;;;;;;;12.95;11.35;;;;;;;1.19;41.67;98910.34;4987812;28;20211;-70
2024/01/09 10:30:21;;;;;;;13.40;10.43;;;;;;;1.48;41.43;98909.81;4986778;28;20210;-70
2024/01/09 10:32:51;;;;;;;13.30;10.65;;;;;;;1.52;40.73;98913.94;4984435;28;20597;-70
2024/01/09 10:35:18;;;;;;;12.80;9.88;;;;;;;1.54;40.95;98904.00;4986734;28;20612;-70
2024/01/09 10:37:45;;;;;;;13.77;10.95;;;;;;;0.68;41.49;98902.78;4987768;28;20295;-70
2024/01/09 10:40:13;;;;;;;12.65;10.13;;;;;;;0.74;42.60;98900.63;4986157;28;20872;-70
2024/01/09 10:42:45;;;;;;;13.45;10.20;;;;;;;0.84;42.70;98904.28;4986701;28;20646;-70
2024/01/09 10:45:12;;;;;;;12.57;10.32;;;;;;;0.79;42.15;98899.28;4981471;28;20231;-70
2024/01/09 10:47:40;;;;;;;14.18;10.25;;;;;;;1.61;41.26;98897.19;4985506;28;20290;-71
2024/01/09 10:50:08;;;;;;;11.77;9.13;;;;;;;1.44;40.39;98900.38;4986403;28;20203;-70
2024/01/09 10:52:35;;;;;;;11.38;10.18;;;;;;;1.53;40.31;98888.97;5017087;28;20549;-71
2024/01/09 10:55:02;;;;;;;12.77;10.55;;;;;;;1.70;41.46;98893.75;4985682;28;20230;-70
2024/01/09 10:57:30;;;;;;;11.60;9.63;;;;;;;2.05;40.19;98900.69;4982485;28;20319;-70
2024/01/09 11:00:00;;;;;;;14.95;10.52;;;;;;;2.53;39.00;98891.22;4988634;28;20214;-70
2024/01/09 11:02:32;;;;;;;14.38;10.70;;;;;;;2.56;38.90;98893.66;4983350;28;20262;-71
2024/01/09 11:05:02;;;;;;;12.05;10.48;;;;;;;2.67;38.78;98893.56;4987149;28;20199;-71
2024/01/09 11:07:30;;;;;;;11.38;9.82;;;;;;;3.42;37.33;98888.84;4985837;28;20199;-71
2024/01/09 11:09:57;;;;;;;11.70;9.65;;;;;;;2.55;38.08;98894.63;4985756;28;20724;-71
2024/01/09 11:12:27;;;;;;;11.95;9.70;;;;;;;2.74;37.98;98890.38;4986099;28;20203;-71
2024/01/09 11:15:08;;;;;;;11.50;10.35;;;;;;;2.30;38.46;98895.81;4987082;28;20577;-71
2024/01/09 11:17:36;;;;;;;13.40;9.95;;;;;;;2.41;38.30;98878.91;4984752;28;20290;-72